Lukachukai, Arizona
Current Conditions -  °F | °C
As of 7:53 PM on Saturday 22 Nov 2014 (Local Time) from KFMN Reporting Station
Broken Clouds Broken Clouds  
Wind Chill: 38°   Ceiling: 11000
Heat Index: 43°   Visibility: 10mi
Dew Point: 22°   Wind: 9mph
Humidity: 43%   Direction: 100°E
Pressure: 29.87"   Gusts: NA
Location:  36.42°N, 109.23°W
Report Text: KFMN 230253Z 10008KT 10SM SCT085 BKN110 06/M06 A2987 RMK AO2 SLP121 T00611056 58014
Loading
Personal Weather Stations






























Interactive Weather Map New forecast layout! Learn more

10-Day Weather Forecast

Advertisements
Track Severe Weather on mobile